Time;durP1;ratioP1;P1;durP2;ratioP2;P2;SDS_P1;SDS_P2;PMS_P1;PMS_P2;Temp;Humidity;BMP_temperature;BMP_pressure;BME280_temperature;BME280_humidity;BME280_pressure;Samples;Min_cycle;Max_cycle;Signal;HPM_P1;HPM_P2
2020/12/05 00:01:05;;;;;;;12.30;8.50;;;3.90;90.50;;;;;;5033025;28;20399;-73
2020/12/05 00:03:31;;;;;;;11.88;8.80;;;3.80;91.50;;;;;;5030767;28;20896;-73
2020/12/05 00:05:56;;;;;;;15.23;8.90;;;3.80;92.00;;;;;;5040935;28;20412;-75
2020/12/05 00:08:22;;;;;;;13.87;9.27;;;3.90;92.70;;;;;;5041484;28;20392;-74
2020/12/05 00:10:47;;;;;;;12.77;8.15;;;4.00;93.10;;;;;;5046180;28;20383;-74
2020/12/05 00:13:14;;;;;;;11.35;8.70;;;4.10;92.20;;;;;;5030009;28;20395;-73
2020/12/05 00:15:40;;;;;;;12.00;8.13;;;3.90;91.40;;;;;;5038315;28;20397;-74
2020/12/05 00:18:05;;;;;;;12.32;8.52;;;3.80;91.90;;;;;;5049848;28;20389;-73
2020/12/05 00:20:31;;;;;;;14.07;8.75;;;3.80;92.20;;;;;;5050063;28;20393;-74
2020/12/05 00:22:56;;;;;;;12.97;8.50;;;3.70;92.70;;;;;;5049541;28;20806;-73
2020/12/05 00:25:22;;;;;;;12.43;8.90;;;3.60;92.60;;;;;;5049244;28;20393;-73
2020/12/05 00:27:47;;;;;;;12.23;8.87;;;3.60;93.00;;;;;;5049569;28;20435;-73
2020/12/05 00:30:13;;;;;;;13.80;9.63;;;3.50;93.50;;;;;;5030009;28;20486;-73
2020/12/05 00:32:39;;;;;;;12.93;9.23;;;3.60;94.70;;;;;;5029733;28;20391;-74
2020/12/05 00:35:05;;;;;;;13.85;9.50;;;3.60;94.90;;;;;;5043287;28;20382;-75
2020/12/05 00:37:31;;;;;;;14.43;10.40;;;3.60;95.40;;;;;;5029867;28;20426;-74
2020/12/05 00:39:57;;;;;;;14.45;10.85;;;3.70;95.90;;;;;;5029984;28;20486;-72
2020/12/05 00:42:24;;;;;;;15.80;10.68;;;3.60;95.90;;;;;;5028680;28;20407;-73
2020/12/05 00:44:50;;;;;;;13.27;9.60;;;3.60;95.80;;;;;;5032286;28;20913;-73
2020/12/05 00:47:16;;;;;;;12.88;10.43;;;3.60;95.80;;;;;;5030035;28;20426;-73
2020/12/05 00:49:42;;;;;;;16.60;10.40;;;3.60;96.40;;;;;;5029606;28;20418;-74
2020/12/05 00:52:07;;;;;;;17.80;10.67;;;3.60;96.50;;;;;;5029865;28;20387;-73
2020/12/05 00:54:33;;;;;;;14.80;10.02;;;3.60;96.40;;;;;;5030122;28;20887;-72
2020/12/05 00:56:58;;;;;;;15.25;10.98;;;3.60;96.60;;;;;;5044631;28;20381;-72
2020/12/05 00:59:24;;;;;;;16.45;10.80;;;3.60;96.60;;;;;;5029950;28;20949;-72
2020/12/05 01:01:54;;;;;;;14.85;10.10;;;3.60;97.30;;;;;;5029985;28;20391;-73
2020/12/05 01:04:20;;;;;;;14.57;10.50;;;3.70;97.70;;;;;;5029654;28;20649;-73
2020/12/05 01:06:46;;;;;;;13.77;10.18;;;3.70;96.90;;;;;;5036096;28;20488;-72
2020/12/05 01:09:12;;;;;;;12.83;9.93;;;3.70;96.60;;;;;;5049991;28;20544;-73
2020/12/05 01:11:38;;;;;;;14.10;9.47;;;3.70;96.30;;;;;;5048417;28;20438;-73
2020/12/05 01:14:03;;;;;;;15.98;10.18;;;3.70;96.50;;;;;;5029986;28;20469;-74
2020/12/05 01:16:31;;;;;;;17.08;11.00;;;3.70;96.00;;;;;;5039996;28;20394;-72
2020/12/05 01:18:56;;;;;;;14.77;10.17;;;3.70;96.20;;;;;;5051759;28;20397;-74
2020/12/05 01:21:23;;;;;;;18.13;12.15;;;3.60;95.90;;;;;;5054029;28;20704;-73
2020/12/05 01:23:49;;;;;;;16.33;10.40;;;3.60;95.60;;;;;;5053438;28;20404;-75
2020/12/05 01:26:19;;;;;;;14.13;10.63;;;3.60;95.60;;;;;;5045757;28;20395;-73
2020/12/05 01:28:45;;;;;;;16.30;10.82;;;3.60;96.00;;;;;;5033890;28;20514;-73
2020/12/05 01:31:11;;;;;;;16.00;10.70;;;3.70;95.50;;;;;;5033762;28;20391;-73
2020/12/05 01:33:37;;;;;;;14.70;10.45;;;3.80;95.60;;;;;;5037981;28;20382;-74
2020/12/05 01:36:04;;;;;;;15.75;11.13;;;3.80;94.40;;;;;;5039486;28;20398;-73
2020/12/05 01:38:29;;;;;;;15.27;10.85;;;3.90;93.30;;;;;;5054381;28;20385;-73
2020/12/05 01:40:57;;;;;;;12.80;9.93;;;3.90;94.10;;;;;;5054536;28;20467;-73
2020/12/05 01:43:24;;;;;;;15.63;10.60;;;4.10;94.30;;;;;;5054163;28;20774;-73
2020/12/05 01:45:50;;;;;;;15.05;10.68;;;4.30;90.10;;;;;;5049838;28;20406;-73
2020/12/05 01:48:17;;;;;;;16.30;11.60;;;4.30;90.40;;;;;;5036531;28;20389;-73
2020/12/05 01:50:43;;;;;;;13.35;10.57;;;4.20;90.20;;;;;;5053277;28;20485;-73
2020/12/05 01:53:09;;;;;;;14.57;11.07;;;4.30;90.30;;;;;;5053752;28;20390;-72
2020/12/05 01:55:36;;;;;;;14.77;10.88;;;4.40;90.80;;;;;;5052070;28;20382;-73
2020/12/05 01:58:01;;;;;;;15.40;10.77;;;4.40;91.00;;;;;;5033332;28;20387;-72
2020/12/05 02:00:27;;;;;;;13.80;10.45;;;4.30;91.30;;;;;;5033415;28;20421;-73
2020/12/05 02:02:53;;;;;;;16.00;10.80;;;4.40;90.90;;;;;;5032950;28;20492;-73
2020/12/05 02:05:56;;;;;;;16.70;11.10;;;4.40;90.20;;;;;;5032700;28;20384;-72
2020/12/05 02:08:37;;;;;;;15.60;11.05;;;4.40;90.10;;;;;;5050108;28;20385;-73
2020/12/05 02:11:03;;;;;;;13.67;11.10;;;4.70;89.60;;;;;;5052852;28;20476;-74
2020/12/05 02:13:41;;;;;;;14.02;10.85;;;4.60;88.90;;;;;;5052974;28;20423;-73
2020/12/05 02:16:07;;;;;;;16.10;11.13;;;4.70;89.70;;;;;;5050910;28;20396;-73
2020/12/05 02:18:35;;;;;;;16.63;12.07;;;4.50;89.80;;;;;;5033532;28;20414;-72
2020/12/05 02:21:03;;;;;;;19.60;12.90;;;4.50;90.70;;;;;;5033250;28;20791;-74
2020/12/05 02:23:29;;;;;;;17.65;12.13;;;4.50;90.80;;;;;;5031682;28;20418;-73
2020/12/05 02:26:03;;;;;;;16.23;12.17;;;4.50;91.30;;;;;;5036282;28;20390;-73
2020/12/05 02:28:29;;;;;;;17.05;12.30;;;4.50;92.30;;;;;;5051328;28;20400;-72
2020/12/05 02:30:55;;;;;;;18.33;12.85;;;4.60;93.30;;;;;;5041034;28;20391;-73
2020/12/05 02:33:21;;;;;;;18.60;12.65;;;4.60;92.40;;;;;;5034255;28;20875;-73
2020/12/05 02:35:46;;;;;;;16.60;11.95;;;4.60;92.10;;;;;;5050927;28;20477;-74
2020/12/05 02:38:25;;;;;;;20.33;13.10;;;4.60;91.90;;;;;;5050363;28;20751;-74
2020/12/05 02:40:51;;;;;;;18.98;12.10;;;4.70;91.80;;;;;;5051599;28;20393;-73
2020/12/05 02:43:17;;;;;;;19.23;12.70;;;4.70;91.40;;;;;;5051886;28;20467;-73
2020/12/05 02:45:43;;;;;;;18.65;12.68;;;4.70;90.60;;;;;;5039701;28;20395;-73
2020/12/05 02:48:09;;;;;;;20.33;13.48;;;4.80;89.70;;;;;;5032334;28;20853;-73
2020/12/05 02:50:36;;;;;;;17.65;12.90;;;4.80;89.50;;;;;;5032170;28;20375;-74
2020/12/05 02:53:02;;;;;;;19.20;13.82;;;4.80;88.40;;;;;;5044958;28;20432;-73
2020/12/05 02:55:28;;;;;;;22.95;14.20;;;4.80;89.00;;;;;;5052145;28;20420;-73
2020/12/05 02:57:54;;;;;;;21.00;14.40;;;4.90;89.10;;;;;;5052033;28;20392;-74
2020/12/05 03:00:20;;;;;;;24.17;14.88;;;5.00;87.70;;;;;;5037462;28;20402;-73
2020/12/05 03:02:46;;;;;;;21.17;14.68;;;4.90;88.00;;;;;;5042514;28;20414;-73
2020/12/05 03:05:11;;;;;;;22.52;14.25;;;5.00;87.60;;;;;;5051614;28;20460;-74
2020/12/05 03:07:37;;;;;;;20.98;15.38;;;5.00;86.50;;;;;;5046392;28;20893;-73
2020/12/05 03:10:03;;;;;;;25.33;16.15;;;4.90;86.80;;;;;;5051746;28;20394;-73
2020/12/05 03:12:28;;;;;;;24.60;15.90;;;4.90;87.60;;;;;;5042974;28;20399;-74
2020/12/05 03:14:54;;;;;;;22.30;14.83;;;4.90;87.60;;;;;;5043640;28;20405;-74
2020/12/05 03:17:19;;;;;;;26.00;16.10;;;4.90;87.80;;;;;;5050393;28;20831;-73
2020/12/05 03:19:45;;;;;;;24.20;15.80;;;4.90;88.00;;;;;;5050364;28;20474;-73
2020/12/05 03:22:11;;;;;;;25.47;16.73;;;4.90;87.80;;;;;;5051382;28;20926;-73
2020/12/05 03:24:36;;;;;;;23.45;15.73;;;4.90;87.70;;;;;;5051223;28;20455;-73
2020/12/05 03:27:02;;;;;;;25.83;16.75;;;4.90;87.90;;;;;;5049373;28;20377;-74
2020/12/05 03:29:28;;;;;;;25.25;16.15;;;4.90;88.10;;;;;;5038897;28;20407;-73
2020/12/05 03:31:58;;;;;;;26.20;16.50;;;5.00;86.60;;;;;;5031289;28;20951;-73
2020/12/05 03:34:24;;;;;;;23.10;16.30;;;5.00;86.30;;;;;;5041502;28;20771;-73
2020/12/05 03:36:49;;;;;;;26.55;17.20;;;4.90;86.80;;;;;;5050956;28;20476;-73
2020/12/05 03:39:16;;;;;;;22.08;15.77;;;4.90;87.10;;;;;;5050987;28;20394;-73
2020/12/05 03:41:42;;;;;;;24.08;16.40;;;4.90;87.50;;;;;;5045595;28;20400;-74
2020/12/05 03:44:07;;;;;;;27.55;17.15;;;4.90;87.90;;;;;;5030452;28;20411;-73
2020/12/05 03:46:33;;;;;;;27.60;17.37;;;4.90;87.60;;;;;;5030734;28;20469;-74
2020/12/05 03:48:59;;;;;;;28.83;17.30;;;5.00;87.40;;;;;;5029343;28;20717;-74
2020/12/05 03:51:25;;;;;;;29.15;17.75;;;5.00;87.00;;;;;;5030591;28;20753;-74
2020/12/05 03:53:51;;;;;;;26.85;17.10;;;5.00;86.40;;;;;;5041027;28;20429;-74
2020/12/05 03:56:16;;;;;;;28.70;18.50;;;5.00;86.80;;;;;;5040894;28;20437;-74
2020/12/05 03:58:42;;;;;;;30.05;18.67;;;4.90;86.50;;;;;;5030163;28;20391;-75
2020/12/05 04:01:08;;;;;;;26.48;18.42;;;5.00;86.60;;;;;;5041172;28;20580;-73
2020/12/05 04:03:33;;;;;;;28.60;18.90;;;4.90;87.00;;;;;;5050253;28;20413;-74
2020/12/05 04:05:59;;;;;;;28.77;18.80;;;5.00;87.50;;;;;;5050240;28;20408;-72
2020/12/05 04:08:25;;;;;;;31.40;19.10;;;5.00;87.00;;;;;;5041448;28;20926;-74
2020/12/05 04:10:50;;;;;;;31.83;18.65;;;5.00;86.30;;;;;;5044255;28;20751;-73
2020/12/05 04:13:16;;;;;;;32.35;18.52;;;5.10;85.30;;;;;;5050131;28;20886;-74
2020/12/05 04:15:41;;;;;;;32.53;19.05;;;5.10;84.90;;;;;;5049986;28;20393;-73
2020/12/05 04:18:07;;;;;;;28.90;19.25;;;5.10;85.10;;;;;;5049901;28;20417;-72
2020/12/05 04:20:33;;;;;;;34.53;19.40;;;5.10;85.40;;;;;;5031873;28;20435;-73
2020/12/05 04:22:58;;;;;;;30.03;18.87;;;5.10;85.00;;;;;;5028590;28;20880;-74
2020/12/05 04:25:24;;;;;;;28.47;18.40;;;5.00;85.30;;;;;;5041286;28;20540;-74
2020/12/05 04:27:50;;;;;;;31.90;20.02;;;5.00;86.00;;;;;;5049841;28;20805;-72
2020/12/05 04:30:16;;;;;;;33.53;20.40;;;4.90;86.50;;;;;;5038502;28;20448;-74
2020/12/05 04:32:42;;;;;;;31.48;19.70;;;4.90;86.70;;;;;;5030121;28;20486;-73
2020/12/05 04:35:08;;;;;;;35.53;20.53;;;4.90;86.90;;;;;;5046272;28;20378;-74
2020/12/05 04:37:37;;;;;;;32.05;20.45;;;4.90;86.80;;;;;;5049995;28;20805;-74
2020/12/05 04:40:04;;;;;;;30.45;19.60;;;4.90;87.10;;;;;;5040085;28;20802;-73
2020/12/05 04:42:30;;;;;;;37.17;20.55;;;4.90;86.90;;;;;;5050277;28;20422;-73
2020/12/05 04:44:56;;;;;;;34.83;20.50;;;4.90;86.40;;;;;;5050921;28;20377;-74
2020/12/05 04:47:24;;;;;;;37.00;21.20;;;4.90;86.70;;;;;;5036533;28;20394;-73
2020/12/05 04:49:54;;;;;;;32.28;20.52;;;4.90;87.40;;;;;;5030924;28;20395;-74
2020/12/05 04:52:24;;;;;;;31.42;20.13;;;5.00;85.50;;;;;;5030230;28;20437;-74
2020/12/05 04:54:54;;;;;;;37.97;21.52;;;5.00;85.80;;;;;;5029078;28;20445;-74
2020/12/05 04:57:25;;;;;;;35.33;21.92;;;5.00;86.00;;;;;;5040727;28;20408;-74
2020/12/05 04:59:52;;;;;;;37.27;22.00;;;5.10;86.50;;;;;;5047519;28;20389;-73
2020/12/05 05:02:26;;;;;;;36.25;22.40;;;5.10;86.00;;;;;;5049529;28;20377;-73
2020/12/05 05:04:51;;;;;;;37.38;22.25;;;5.10;85.40;;;;;;5049767;28;20858;-74
2020/12/05 05:07:17;;;;;;;35.40;21.97;;;5.10;84.70;;;;;;5040265;28;20398;-74
2020/12/05 05:10:10;;;;;;;35.53;22.00;;;5.10;84.90;;;;;;5034625;28;20738;-75
2020/12/05 05:12:36;;;;;;;37.88;22.60;;;5.00;84.40;;;;;;5028670;28;20394;-74
2020/12/05 05:15:30;;;;;;;36.95;22.35;;;5.00;85.10;;;;;;5029518;28;20387;-75
2020/12/05 05:18:03;;;;;;;36.72;22.48;;;5.00;84.50;;;;;;5029756;28;20385;-75
2020/12/05 05:20:41;;;;;;;37.17;22.65;;;5.00;84.90;;;;;;5030407;28;20761;-73
2020/12/05 05:23:18;;;;;;;40.70;23.20;;;5.00;85.50;;;;;;5028034;28;20407;-74
2020/12/05 05:25:54;;;;;;;37.78;22.80;;;4.90;85.40;;;;;;5029623;28;20383;-73
2020/12/05 05:28:28;;;;;;;42.70;23.33;;;4.90;86.60;;;;;;5029350;28;20387;-73
2020/12/05 05:30:55;;;;;;;41.83;23.75;;;4.90;86.60;;;;;;5029539;28;20422;-74
2020/12/05 05:33:22;;;;;;;43.15;24.70;;;4.90;86.40;;;;;;5029718;28;20441;-73
2020/12/05 05:35:47;;;;;;;44.88;24.55;;;4.80;86.20;;;;;;5038231;28;20393;-73
2020/12/05 05:38:22;;;;;;;44.27;24.87;;;4.80;86.90;;;;;;5049381;28;20473;-73
2020/12/05 05:40:48;;;;;;;44.97;25.17;;;4.60;87.20;;;;;;5044699;28;20410;-74
2020/12/05 05:43:21;;;;;;;43.15;24.50;;;4.60;87.80;;;;;;5029075;28;20407;-75
2020/12/05 05:45:47;;;;;;;42.05;24.70;;;4.50;88.70;;;;;;5029628;28;20386;-73
2020/12/05 05:48:13;;;;;;;46.20;25.90;;;4.40;89.40;;;;;;5029431;28;20880;-75
2020/12/05 05:50:39;;;;;;;46.25;25.00;;;4.30;90.30;;;;;;5030435;28;20410;-74
2020/12/05 05:53:10;;;;;;;50.42;27.15;;;4.30;91.50;;;;;;5029151;28;20395;-74
2020/12/05 05:55:39;;;;;;;46.42;26.48;;;4.30;92.10;;;;;;5029401;28;20788;-74
2020/12/05 05:58:05;;;;;;;48.00;26.73;;;4.30;92.70;;;;;;5029019;28;20379;-73
2020/12/05 06:00:37;;;;;;;51.17;28.08;;;4.40;93.10;;;;;;5029143;28;20787;-74
2020/12/05 06:03:16;;;;;;;45.40;27.00;;;4.40;92.60;;;;;;5030355;28;20411;-73
2020/12/05 06:05:45;;;;;;;45.65;26.85;;;4.40;92.80;;;;;;5051746;28;20377;-74
2020/12/05 06:08:21;;;;;;;47.05;26.75;;;4.40;92.80;;;;;;5042230;28;20385;-74
2020/12/05 06:11:11;;;;;;;50.90;27.33;;;4.40;92.40;;;;;;5052566;28;20474;-74
2020/12/05 06:13:36;;;;;;;46.33;27.23;;;4.40;92.70;;;;;;5052332;28;20384;-74
2020/12/05 06:16:03;;;;;;;50.50;27.00;;;4.30;92.70;;;;;;5052216;28;20871;-74
2020/12/05 06:18:29;;;;;;;54.72;28.70;;;4.20;92.80;;;;;;5036525;28;20398;-74
2020/12/05 06:20:54;;;;;;;49.75;27.80;;;4.10;93.30;;;;;;5031017;28;20478;-73
2020/12/05 06:23:23;;;;;;;54.95;28.13;;;4.10;93.40;;;;;;5032428;28;20514;-74
2020/12/05 06:25:53;;;;;;;49.95;28.33;;;4.10;93.90;;;;;;5033095;28;20466;-74
2020/12/05 06:28:21;;;;;;;54.00;28.45;;;4.00;93.60;;;;;;5052012;28;20381;-74
2020/12/05 06:30:47;;;;;;;52.33;28.98;;;4.00;94.00;;;;;;5050216;28;20392;-74
2020/12/05 06:33:48;;;;;;;53.92;29.45;;;3.90;94.20;;;;;;5037236;28;20480;-75
2020/12/05 06:36:26;;;;;;;52.13;29.00;;;3.80;94.70;;;;;;5033171;28;20484;-76
2020/12/05 06:39:11;;;;;;;56.33;29.35;;;3.90;96.60;;;;;;5048132;28;20452;-74
2020/12/05 06:41:39;;;;;;;55.03;31.08;;;3.90;95.80;;;;;;5052034;28;20389;-74
2020/12/05 06:44:32;;;;;;;60.90;30.40;;;4.00;96.00;;;;;;5051407;28;20412;-74
2020/12/05 06:47:00;;;;;;;60.03;30.30;;;3.90;95.90;;;;;;5031969;28;20391;-73
2020/12/05 06:49:37;;;;;;;56.10;30.60;;;3.90;96.00;;;;;;5037789;28;20390;-73
2020/12/05 06:52:25;;;;;;;56.17;30.33;;;3.90;96.80;;;;;;5051788;28;20381;-74
2020/12/05 06:54:52;;;;;;;62.53;31.20;;;3.90;97.70;;;;;;5053049;28;20393;-74
2020/12/05 06:57:18;;;;;;;57.40;30.33;;;4.00;98.20;;;;;;5048591;28;20434;-74
2020/12/05 06:59:44;;;;;;;62.38;31.30;;;4.10;98.20;;;;;;5033691;28;20434;-74
2020/12/05 07:02:29;;;;;;;60.08;31.40;;;4.10;97.90;;;;;;5034127;28;20395;-75
2020/12/05 07:05:20;;;;;;;58.53;30.77;;;4.10;97.90;;;;;;5053495;28;20377;-73
2020/12/05 07:07:47;;;;;;;55.30;29.90;;;4.10;97.80;;;;;;5053744;28;20388;-73
2020/12/05 07:10:13;;;;;;;55.70;29.63;;;4.00;97.60;;;;;;5052734;28;20428;-74
2020/12/05 07:12:39;;;;;;;57.50;30.53;;;4.00;97.70;;;;;;5052857;28;20389;-74
2020/12/05 07:15:24;;;;;;;57.83;29.50;;;4.00;97.60;;;;;;5052444;28;20488;-74
2020/12/05 07:17:50;;;;;;;59.43;30.43;;;3.90;97.40;;;;;;5034015;28;20544;-73
2020/12/05 07:20:16;;;;;;;58.35;30.63;;;3.90;97.50;;;;;;5032190;28;20510;-72
2020/12/05 07:22:44;;;;;;;62.50;30.47;;;3.90;97.80;;;;;;5046167;28;20409;-73
2020/12/05 07:25:09;;;;;;;59.00;30.67;;;3.80;97.90;;;;;;5050951;28;20405;-73
2020/12/05 07:27:35;;;;;;;57.47;30.48;;;3.90;98.60;;;;;;5052762;28;20382;-73
2020/12/05 07:30:00;;;;;;;61.78;31.60;;;3.90;99.10;;;;;;5052181;28;20877;-74
2020/12/05 07:32:35;;;;;;;60.17;31.23;;;4.00;98.90;;;;;;5036490;28;20431;-73
2020/12/05 07:35:03;;;;;;;61.55;30.75;;;4.10;99.50;;;;;;5048605;28;20389;-74
2020/12/05 07:37:29;;;;;;;57.53;29.75;;;4.10;99.40;;;;;;5052878;28;20510;-74
2020/12/05 07:39:55;;;;;;;57.17;30.30;;;4.20;99.10;;;;;;5052452;28;20381;-74
2020/12/05 07:42:22;;;;;;;58.55;30.98;;;4.20;98.00;;;;;;5052107;28;20464;-74
2020/12/05 07:44:48;;;;;;;59.25;30.60;;;4.20;97.50;;;;;;5049785;28;20416;-74
2020/12/05 07:47:20;;;;;;;62.05;31.60;;;4.10;96.90;;;;;;5032652;28;20391;-75
2020/12/05 07:49:54;;;;;;;62.53;32.00;;;4.20;97.30;;;;;;5032777;28;20395;-73
2020/12/05 07:52:23;;;;;;;63.22;33.63;;;4.20;97.80;;;;;;5031531;28;20517;-74
2020/12/05 07:54:55;;;;;;;60.43;30.87;;;4.20;98.60;;;;;;5044765;28;20901;-75
2020/12/05 07:57:28;;;;;;;56.55;31.73;;;4.30;99.50;;;;;;5045145;28;20462;-73
2020/12/05 08:00:12;;;;;;;60.70;31.20;;;4.50;99.90;;;;;;5032081;28;20470;-73
2020/12/05 08:02:52;;;;;;;54.13;29.27;;;4.70;99.80;;;;;;5039894;28;20769;-73
2020/12/05 08:05:53;;;;;;;58.90;30.20;;;4.80;98.90;;;;;;5030233;28;20923;-73
2020/12/05 08:08:19;;;;;;;55.03;29.77;;;4.90;98.30;;;;;;5027726;28;20756;-73
2020/12/05 08:10:45;;;;;;;50.25;27.48;;;5.00;97.60;;;;;;5032226;28;20493;-72
2020/12/05 08:13:26;;;;;;;52.63;26.98;;;5.10;95.60;;;;;;5043174;28;20393;-73
2020/12/05 08:15:57;;;;;;;46.00;26.77;;;5.20;93.10;;;;;;5050148;28;20459;-72
2020/12/05 08:18:26;;;;;;;48.90;27.07;;;5.10;91.90;;;;;;5038373;28;20571;-74
2020/12/05 08:20:53;;;;;;;46.43;27.33;;;5.10;91.00;;;;;;5041296;28;20417;-73
2020/12/05 08:23:33;;;;;;;50.10;27.45;;;5.10;90.00;;;;;;5030099;28;20403;-73
2020/12/05 08:26:03;;;;;;;49.30;26.60;;;5.10;89.10;;;;;;5032006;28;20438;-73
2020/12/05 08:28:32;;;;;;;67.28;37.88;;;5.20;88.10;;;;;;5050707;28;20374;-73
2020/12/05 08:31:06;;;;;;;68.90;37.42;;;5.30;87.80;;;;;;5040545;28;20474;-73
2020/12/05 08:33:48;;;;;;;77.00;43.72;;;5.40;88.40;;;;;;5035704;28;20435;-72
2020/12/05 08:36:35;;;;;;;73.75;37.53;;;5.50;88.00;;;;;;5042598;28;20481;-75
2020/12/05 08:39:09;;;;;;;52.40;28.57;;;5.60;86.50;;;;;;5031111;28;20399;-72
2020/12/05 08:41:46;;;;;;;47.00;29.00;;;5.60;84.80;;;;;;5045304;28;20389;-71
2020/12/05 08:44:19;;;;;;;60.75;34.65;;;5.70;82.60;;;;;;5028329;28;20844;-73
2020/12/05 08:46:45;;;;;;;62.45;34.28;;;5.90;83.90;;;;;;5027076;28;20422;-72
2020/12/05 08:49:16;;;;;;;56.30;29.67;;;6.00;83.60;;;;;;5017638;28;20428;-76
2020/12/05 08:51:45;;;;;;;52.72;29.98;;;6.20;82.00;;;;;;5027156;28;20391;-75
2020/12/05 08:54:11;;;;;;;45.83;27.65;;;6.40;79.90;;;;;;5014876;28;20404;-74
2020/12/05 08:56:37;;;;;;;46.60;26.13;;;6.70;78.40;;;;;;5020274;28;20413;-72
2020/12/05 08:59:02;;;;;;;41.30;25.50;;;6.80;72.70;;;;;;5029340;28;20757;-73
2020/12/05 09:01:39;;;;;;;46.58;26.45;;;6.70;73.30;;;;;;5033653;28;20383;-74
2020/12/05 09:04:05;;;;;;;40.08;23.90;;;6.70;74.10;;;;;;5026371;28;20903;-71
2020/12/05 09:06:31;;;;;;;47.58;25.90;;;6.70;73.10;;;;;;5015273;28;20395;-73
2020/12/05 09:08:56;;;;;;;41.22;25.13;;;6.60;73.90;;;;;;5020737;28;20550;-72
2020/12/05 09:11:25;;;;;;;37.00;22.40;;;6.70;73.50;;;;;;5015439;28;20491;-72
2020/12/05 09:13:51;;;;;;;38.55;21.40;;;6.50;71.90;;;;;;5013621;28;20770;-73
2020/12/05 09:16:17;;;;;;;34.10;20.25;;;6.70;73.00;;;;;;5015711;28;20417;-72
2020/12/05 09:18:48;;;;;;;29.73;18.60;;;7.20;68.80;;;;;;5030456;28;20403;-73
2020/12/05 09:21:20;;;;;;;28.58;16.23;;;7.40;61.40;;;;;;5029266;28;20787;-73
2020/12/05 09:24:01;;;;;;;28.05;16.45;;;7.20;60.00;;;;;;5022104;28;20745;-73
2020/12/05 09:26:27;;;;;;;23.75;13.70;;;7.10;61.20;;;;;;5019469;28;20388;-77
2020/12/05 09:28:53;;;;;;;20.87;14.00;;;7.00;59.80;;;;;;5022874;28;20725;-74
2020/12/05 09:31:20;;;;;;;20.88;12.10;;;6.80;60.50;;;;;;5024381;28;20872;-75
2020/12/05 09:33:45;;;;;;;19.33;10.88;;;6.70;60.00;;;;;;5025603;28;20399;-75
2020/12/05 09:36:11;;;;;;;14.38;10.27;;;6.80;58.10;;;;;;5025893;28;21681;-75
2020/12/05 09:38:36;;;;;;;14.75;9.60;;;6.80;57.10;;;;;;5026220;28;20402;-75
2020/12/05 09:41:02;;;;;;;13.07;8.52;;;6.90;55.60;;;;;;5029902;28;20400;-74
2020/12/05 09:43:28;;;;;;;13.43;8.23;;;6.90;54.80;;;;;;5031678;28;20417;-75
2020/12/05 09:45:54;;;;;;;10.87;7.60;;;7.00;53.50;;;;;;5017440;28;20398;-76
2020/12/05 09:48:20;;;;;;;15.23;9.80;;;7.10;52.30;;;;;;5032576;28;20395;-74
2020/12/05 09:50:46;;;;;;;16.10;11.23;;;7.10;53.60;;;;;;5030948;28;20744;-75
2020/12/05 09:53:12;;;;;;;14.77;11.02;;;7.10;54.10;;;;;;5029943;28;20398;-74
2020/12/05 09:55:37;;;;;;;12.60;9.30;;;7.10;55.20;;;;;;5027609;28;20403;-73
2020/12/05 09:58:03;;;;;;;16.00;10.57;;;7.20;53.30;;;;;;5025191;28;20880;-74
2020/12/05 10:00:30;;;;;;;17.80;11.43;;;7.20;51.60;;;;;;5031083;28;20435;-75
2020/12/05 10:02:55;;;;;;;14.95;10.82;;;7.10;53.40;;;;;;5030849;28;20438;-73
2020/12/05 10:05:21;;;;;;;16.45;10.55;;;7.20;52.70;;;;;;5019205;28;20387;-72
2020/12/05 10:07:47;;;;;;;14.50;10.00;;;7.30;51.90;;;;;;5026457;28;20446;-76
2020/12/05 10:10:13;;;;;;;17.13;10.53;;;7.30;52.50;;;;;;5032532;28;20391;-76
2020/12/05 10:12:44;;;;;;;15.60;10.20;;;7.30;51.30;;;;;;5031042;28;20395;-76
2020/12/05 10:15:10;;;;;;;12.07;8.23;;;7.30;51.50;;;;;;5032480;28;20862;-75
2020/12/05 10:17:36;;;;;;;12.05;7.90;;;7.40;49.50;;;;;;5030771;28;20403;-77
2020/12/05 10:20:02;;;;;;;9.02;6.30;;;7.50;48.20;;;;;;5032180;28;20406;-75
2020/12/05 10:22:27;;;;;;;8.67;6.70;;;7.60;42.50;;;;;;5033096;28;20796;-73
2020/12/05 10:24:53;;;;;;;8.47;6.73;;;7.60;44.00;;;;;;5033045;28;20493;-74
2020/12/05 10:27:18;;;;;;;9.80;6.40;;;7.70;44.70;;;;;;5032951;28;20425;-75
2020/12/05 10:29:44;;;;;;;9.20;6.87;;;7.60;44.50;;;;;;5031079;28;20399;-75
2020/12/05 10:32:09;;;;;;;6.70;5.30;;;7.50;44.60;;;;;;5033229;28;20422;-74
2020/12/05 10:34:35;;;;;;;9.47;6.83;;;7.60;43.70;;;;;;5033296;28;20449;-73
2020/12/05 10:37:00;;;;;;;9.23;5.67;;;7.60;42.80;;;;;;5032639;28;20478;-74
2020/12/05 10:39:26;;;;;;;8.40;6.27;;;7.60;42.20;;;;;;5033182;28;20395;-74
2020/12/05 10:41:53;;;;;;;6.07;4.00;;;7.60;42.80;;;;;;5018042;28;20916;-74
2020/12/05 10:44:19;;;;;;;7.53;4.00;;;7.80;39.60;;;;;;5020560;28;20491;-73
2020/12/05 10:46:47;;;;;;;5.03;3.33;;;7.90;38.10;;;;;;5025668;28;20397;-73
2020/12/05 10:49:18;;;;;;;3.83;3.30;;;8.00;38.30;;;;;;5017320;28;20424;-71
2020/12/05 10:51:44;;;;;;;3.70;3.40;;;8.20;37.10;;;;;;5031225;28;20513;-73
2020/12/05 10:54:10;;;;;;;3.35;3.05;;;8.50;36.10;;;;;;5030425;28;20552;-73
2020/12/05 10:56:38;;;;;;;5.30;3.20;;;8.70;33.80;;;;;;5031411;28;20933;-72
2020/12/05 10:59:04;;;;;;;3.55;2.90;;;8.70;33.90;;;;;;5027848;28;20402;-75
2020/12/05 11:01:30;;;;;;;3.60;2.60;;;8.60;33.20;;;;;;5031347;28;20426;-72
2020/12/05 11:03:56;;;;;;;3.15;2.75;;;8.50;33.00;;;;;;5030716;28;20457;-71
2020/12/05 11:06:22;;;;;;;3.13;2.63;;;8.60;33.50;;;;;;5029978;28;20431;-72
2020/12/05 11:08:49;;;;;;;3.35;3.10;;;8.50;34.50;;;;;;5022092;28;20489;-73
2020/12/05 11:11:15;;;;;;;3.00;2.70;;;8.50;32.90;;;;;;5031260;28;20773;-73
2020/12/05 11:13:40;;;;;;;3.28;2.55;;;8.50;33.00;;;;;;5042609;28;20400;-73
2020/12/05 11:16:06;;;;;;;3.20;2.90;;;8.50;33.90;;;;;;5047339;28;20417;-73
2020/12/05 11:18:31;;;;;;;2.90;2.70;;;8.30;33.90;;;;;;5030428;28;20419;-73
2020/12/05 11:20:57;;;;;;;3.43;2.80;;;8.30;33.80;;;;;;5036287;28;20484;-72
2020/12/05 11:23:23;;;;;;;3.17;2.77;;;8.30;33.50;;;;;;5030530;28;20460;-73
2020/12/05 11:25:48;;;;;;;3.00;2.23;;;8.20;33.40;;;;;;5030277;28;20399;-73
2020/12/05 11:28:14;;;;;;;2.70;2.50;;;8.20;32.00;;;;;;5036245;28;20393;-74
2020/12/05 11:30:39;;;;;;;2.60;2.40;;;8.10;33.80;;;;;;5038858;28;20390;-73
2020/12/05 11:33:05;;;;;;;2.73;2.37;;;8.10;34.00;;;;;;5029953;28;20409;-72
2020/12/05 11:35:30;;;;;;;2.70;2.50;;;8.10;34.40;;;;;;5038762;28;20910;-73
2020/12/05 11:37:56;;;;;;;4.80;2.33;;;8.20;33.20;;;;;;5033692;28;20398;-74
2020/12/05 11:40:21;;;;;;;2.60;1.93;;;8.20;32.70;;;;;;5033767;28;20391;-73
2020/12/05 11:42:47;;;;;;;3.50;2.03;;;8.20;33.10;;;;;;5031638;28;20414;-74
2020/12/05 11:45:12;;;;;;;2.50;2.13;;;8.10;31.80;;;;;;5030086;28;20740;-74
2020/12/05 11:47:38;;;;;;;2.30;1.90;;;8.00;32.60;;;;;;5035973;28;20425;-73
2020/12/05 11:50:04;;;;;;;3.57;2.30;;;8.10;32.20;;;;;;5036968;28;20445;-76
2020/12/05 11:52:30;;;;;;;4.73;2.13;;;8.10;32.10;;;;;;5045727;28;20403;-74
2020/12/05 11:54:55;;;;;;;3.80;2.00;;;8.00;31.70;;;;;;5034008;28;20406;-75
2020/12/05 11:57:21;;;;;;;2.00;1.70;;;8.00;32.30;;;;;;5033587;28;20470;-75
2020/12/05 11:59:47;;;;;;;1.60;1.50;;;8.00;31.80;;;;;;5043106;28;20755;-74
2020/12/05 12:02:12;;;;;;;4.30;2.07;;;8.00;29.90;;;;;;5044062;28;20485;-75
2020/12/05 12:04:41;;;;;;;2.00;1.53;;;8.00;30.10;;;;;;5042206;28;20418;-76
2020/12/05 12:07:07;;;;;;;3.60;1.60;;;8.00;29.90;;;;;;5037057;28;20388;-73
2020/12/05 12:09:33;;;;;;;1.60;1.50;;;8.00;30.40;;;;;;5038474;28;20820;-75
2020/12/05 12:11:58;;;;;;;1.70;1.33;;;8.00;29.70;;;;;;5029424;28;20482;-72
2020/12/05 12:14:24;;;;;;;2.00;1.50;;;8.00;29.00;;;;;;5030063;28;20379;-75
2020/12/05 12:16:49;;;;;;;3.57;1.90;;;8.00;29.30;;;;;;5037856;28;20764;-75
2020/12/05 12:19:15;;;;;;;3.10;1.80;;;8.00;29.80;;;;;;5037215;28;20409;-74
2020/12/05 12:21:40;;;;;;;6.63;2.07;;;8.00;28.60;;;;;;5048767;28;20401;-75
2020/12/05 12:24:06;;;;;;;1.90;1.20;;;8.10;29.00;;;;;;5047882;28;20459;-75
2020/12/05 12:26:31;;;;;;;1.90;1.70;;;8.10;27.90;;;;;;5041029;28;20398;-74
2020/12/05 12:28:57;;;;;;;2.20;1.53;;;8.00;27.60;;;;;;5029950;28;20751;-72
2020/12/05 12:31:23;;;;;;;2.90;1.60;;;7.90;28.70;;;;;;5038306;28;20482;-75
2020/12/05 12:33:48;;;;;;;2.00;1.80;;;8.00;28.60;;;;;;5030603;28;20422;-77
2020/12/05 12:36:17;;;;;;;2.00;1.70;;;7.90;28.50;;;;;;5029794;28;20466;-74
2020/12/05 12:38:43;;;;;;;4.65;2.10;;;7.90;28.00;;;;;;5040030;28;20403;-74
2020/12/05 12:41:13;;;;;;;3.60;1.40;;;8.00;29.00;;;;;;5049172;28;20459;-75
2020/12/05 12:43:38;;;;;;;2.60;1.40;;;8.00;27.10;;;;;;5033822;28;20409;-75
2020/12/05 12:46:04;;;;;;;3.50;1.50;;;8.00;28.00;;;;;;5029383;28;20403;-77